METAR / TAF

Buochs LSZC 250750Z 21004KT 1800 BR OVC002 M02/M03 Q1033

TAF LSZC 250525Z 2506/2515 VRB05KT 3000 BR BKN004 BECMG 2509/2512 5000 BR SCT007


Alpnach AFB LSMA 250750Z 00000KT 2100 BR OVC003 M02/M03 Q1034 RMK YLO

TAF LSMA 242117Z 2421/2523 VRB02KT 6000 OVC011 BECMG 2421/2424 4000 BR BKN008 BECMG 2500/2503 BKN004 BECMG 2510/2512 CAVOK


Emmen AFB LSME 250750Z 28003KT 240V320 2500 BR OVC004 M01/M01 Q1034 RMK YLO

TAF LSME 242118Z 2421/2523 VRB02KT 6000 OVC011 BECMG 2421/2423 BKN009 BECMG 2500/2504 4000 BR BKN004 PROB30 2502/2507 2500 BCFG BECMG 2510/2512 CAVOK


Bern LSZB 250750Z VRB01KT 0400 R14/0750U FZFG VV002 M04/M04 Q1033 NOSIG

TAF LSZB 250525Z 2506/2515 VRB02KT 0400 FZFG VV002 BECMG 2507/2508 0700 FZFG BKN003 BECMG 2508/2510 4500 BR BKN006 BECMG 2510/2512 7000 SCT008 PROB40 2513/2515 CAVOK


Grenchen LSZG 250750Z 21004KT 2300 BR OVC004 M01/M02 Q1033 NOSIG

TAF LSZG 250525Z 2506/2515 27005KT 3000 BR BKN005 BECMG 2509/2512 5000 BR SCT010


Zurich LSZH 250750Z 22005KT 4000 BR BKN007 M01/M02 Q1033 NOSIG

TAF LSZH 250525Z 2506/2612 20005KT 6000 BKN006 TX04/2514Z TNM01/2506Z TNM04/2605Z TEMPO 2506/2508 4000 BR BKN004 BECMG 2509/2511 6000 SCT006 BECMG 2511/2513 CAVOK BECMG 2518/2520 7000 NSC BECMG 2520/2522 4000 MIFG NSC PROB40 2522/2607 2500 BCFG PROB30 2600/2607 0400 FZFG VV001 BECMG 2610/2612 CAVOK


Bale LFSB 250800Z 18003KT 4500 BR NSC M01/M03 Q1033 BECMG 7000 NSW

TAF LFSB 250500Z 2506/2606 16005KT 4500 BR FEW001 BECMG 2506/2509 CAVOK PROB40 TEMPO 2600/2606 4000 BR


Les Eplatures LSGC 250750Z 24003KT CAVOK M05/M08 Q1030

TAF LSGC 250525Z 2506/2515 VRB02KT CAVOK


Geneva LSGG 250750Z 24002KT 1900 BR SCT002 BKN005 M00/M01 Q1034 NOSIG

TAF LSGG 250525Z 2506/2612 VRB02KT 3500 BR OVC005 TX05/2515Z TNM03/2506Z TNM03/2606Z TEMPO 2506/2508 2500 BR OVC003 BECMG 2510/2513 8000 BR SCT010 PROB40 2514/2520 CAVOK BECMG 2522/2524 3500 BR BKN007 PROB30 TEMPO 2603/2608 0800 FZFG VV002 BECMG 2610/2612 5000 BR SCT010


Sion LSGS 250750Z 00000KT CAVOK M05/M07 Q1034

TAF LSGS 250525Z 2506/2515 VRB02KT CAVOK


Payerne AFB LSMP 250750Z 20007KT 2100 BR OVC004 M02/M03 Q1034 RMK YLO

TAF LSMP 250324Z 2503/2523 VRB02KT 3500 BR OVC006 PROB30 2504/2509 0900 FZFG VV003 BECMG 2511/2514 8000 SCT010 BECMG 2519/2521 3500 BR OVC006


Lugano LSZA 250750Z VRB01KT 4000 BR OVC030 01/M01 Q1034 NOSIG

TAF LSZA 250525Z 2506/2515 VRB02KT 4000 BR OVC025 BECMG 2506/2509 7000 PROB30 2512/2515 CAVOK


Locarno LSZL 250750Z 06004KT 6000 SCT022 01/M01 Q1034 WHT

TAF LSZL 250525Z 2506/2515 VRB02KT 9999 SCT015 TEMPO 2506/2509 5000 BR BKN015 BECMG 2512/2515 CAVOK


St. Gallen LSZR 250750Z VRB02KT 4500 BR OVC005 M01/M01 Q1033 NOSIG RMK C

TAF LSZR 250525Z 2506/2515 10005KT 4000 OVC006 BECMG 2506/2509 7000 BECMG 2508/2511 SCT012 PROB40 2512/2515 CAVOK


Samedan LSZS 250750Z VRB02KT CAVOK M14/M16 Q1030 RMK C TL170

TAF LSZS 250525Z 2506/2515 VRB05KT CAVOK TX02/2513Z

Radar

Föhn diagram

From an air pressure difference of approx. 4 hPa (dashed line) between the northern and southern Alps, Föhn can occur. The higher the pressure difference, the more violent the Föhn!

Forecast

Privacy Settings
We use cookies to enhance your experience while using our website. If you are using our Services via a browser you can restrict, block or remove cookies through your web browser settings. We also use content and scripts from third parties that may use tracking technologies. You can selectively provide your consent below to allow such third party embeds. For complete information about the cookies we use, data we collect and how we process them, please check our Privacy Policy
Youtube
Consent to display content from Youtube
Vimeo
Consent to display content from Vimeo
Google Maps
Consent to display content from Google